Time;durP1;ratioP1;P1;durP2;ratioP2;P2;SDS_P1;SDS_P2;PMS_P1;PMS_P2;Temp;Humidity;BMP_temperature;BMP_pressure;BME280_temperature;BME280_humidity;BME280_pressure;Samples;Min_cycle;Max_cycle;Signal;HPM_P1;HPM_P2
2024/03/13 00:02:14;;;;;;;3.10;2.20;;;6.80;25.50;;;;;;5113011;28;20201;-73
2024/03/13 00:04:45;;;;;;;4.20;2.63;;;6.70;26.10;;;;;;5112907;28;20501;-73
2024/03/13 00:07:15;;;;;;;3.73;2.43;;;6.80;26.00;;;;;;5111473;28;20418;-74
2024/03/13 00:09:50;;;;;;;2.80;1.93;;;6.90;25.50;;;;;;5112811;28;20457;-72
2024/03/13 00:12:18;;;;;;;5.77;1.97;;;6.90;24.40;;;;;;5112912;28;20462;-72
2024/03/13 00:14:53;;;;;;;2.10;1.13;;;6.80;24.20;;;;;;5111494;28;20415;-73
2024/03/13 00:17:21;;;;;;;2.97;2.03;;;6.80;23.20;;;;;;5112643;28;20408;-73
2024/03/13 00:19:51;;;;;;;3.20;1.77;;;6.80;22.20;;;;;;5112604;28;20426;-75
2024/03/13 00:22:21;;;;;;;2.70;1.90;;;6.70;24.00;;;;;;5112478;28;20471;-73
2024/03/13 00:24:50;;;;;;;3.67;2.07;;;6.70;24.80;;;;;;5112682;28;20417;-73
2024/03/13 00:27:17;;;;;;;3.30;2.30;;;6.70;25.40;;;;;;5112606;28;20810;-73
2024/03/13 00:29:44;;;;;;;2.57;1.80;;;6.70;26.20;;;;;;5111320;28;20409;-73
2024/03/13 00:32:15;;;;;;;2.80;1.10;;;6.60;26.40;;;;;;5112408;28;20447;-72
2024/03/13 00:34:43;;;;;;;2.37;1.30;;;6.60;26.80;;;;;;5112740;28;20776;-73
2024/03/13 00:37:09;;;;;;;2.77;1.73;;;6.70;27.30;;;;;;5111309;28;21033;-73
2024/03/13 00:39:36;;;;;;;2.53;1.23;;;6.60;27.80;;;;;;5112613;28;20783;-73
2024/03/13 00:42:11;;;;;;;2.37;1.27;;;6.60;27.60;;;;;;5112401;28;20460;-74
2024/03/13 00:44:37;;;;;;;2.67;1.10;;;6.60;28.70;;;;;;5112650;28;20430;-73
2024/03/13 00:47:03;;;;;;;1.73;0.77;;;6.60;28.10;;;;;;5111017;28;20422;-74
2024/03/13 00:49:29;;;;;;;5.80;1.47;;;6.50;27.20;;;;;;5112664;28;20411;-73
2024/03/13 00:51:54;;;;;;;2.20;1.30;;;6.50;26.30;;;;;;5112130;28;20441;-72
2024/03/13 00:54:23;;;;;;;2.37;1.33;;;6.40;25.20;;;;;;5110926;28;20411;-72
2024/03/13 00:56:48;;;;;;;2.13;1.00;;;6.40;25.20;;;;;;5110987;28;20538;-71
2024/03/13 00:59:16;;;;;;;2.00;0.90;;;6.30;25.60;;;;;;5112401;28;20484;-73
2024/03/13 01:01:44;;;;;;;3.23;1.23;;;6.30;26.40;;;;;;5113144;28;20684;-76
2024/03/13 01:04:10;;;;;;;2.37;1.17;;;6.30;26.50;;;;;;5112776;28;20417;-72
2024/03/13 01:06:37;;;;;;;3.60;1.37;;;6.20;26.60;;;;;;5112248;28;20402;-72
2024/03/13 01:09:03;;;;;;;2.77;1.20;;;6.20;26.40;;;;;;5112173;28;20414;-74
2024/03/13 01:11:34;;;;;;;2.03;1.10;;;6.20;26.60;;;;;;5112514;28;20442;-72
2024/03/13 01:14:03;;;;;;;3.27;1.37;;;6.10;27.40;;;;;;5115018;28;20862;-71
2024/03/13 01:16:29;;;;;;;2.43;1.30;;;6.10;28.30;;;;;;5116057;28;20955;-72
2024/03/13 01:18:55;;;;;;;1.80;0.60;;;6.10;29.00;;;;;;5116181;28;20414;-71
2024/03/13 01:21:23;;;;;;;2.40;0.97;;;6.00;29.60;;;;;;5116043;28;20545;-74
2024/03/13 01:23:49;;;;;;;2.20;0.70;;;6.00;29.00;;;;;;5115870;28;20432;-72
2024/03/13 01:26:14;;;;;;;1.93;1.10;;;6.00;28.70;;;;;;5116056;28;20415;-72
2024/03/13 01:28:42;;;;;;;1.60;0.70;;;6.00;28.00;;;;;;5116016;28;20169;-72
2024/03/13 01:31:09;;;;;;;2.03;0.97;;;6.00;28.70;;;;;;5114689;28;20172;-72
2024/03/13 01:33:38;;;;;;;2.07;0.70;;;5.90;27.40;;;;;;5115882;28;20487;-73
2024/03/13 01:36:05;;;;;;;2.07;0.60;;;5.80;28.10;;;;;;5115602;28;20467;-73
2024/03/13 01:38:30;;;;;;;2.83;0.90;;;5.80;28.40;;;;;;5115788;28;20498;-71
2024/03/13 01:55:09;;;;;;;1.87;1.00;;;5.70;28.80;;;;;;5115571;28;20974;-73
2024/03/13 01:57:56;;;;;;;2.20;1.03;;;5.70;30.00;;;;;;5115457;28;20430;-72
2024/03/13 02:03:09;;;;;;;2.03;0.90;;;5.60;30.60;;;;;;5115451;28;20503;-72
2024/03/13 02:05:38;;;;;;;2.00;0.70;;;5.60;28.70;;;;;;5113881;28;20862;-73
2024/03/13 02:08:08;;;;;;;1.80;0.90;;;5.60;28.80;;;;;;5115130;28;20403;-71
2024/03/13 02:10:35;;;;;;;1.80;0.70;;;5.50;29.40;;;;;;5115214;28;20399;-73
2024/03/13 02:13:10;;;;;;;1.60;0.60;;;5.60;30.50;;;;;;5115615;28;20697;-72
2024/03/13 02:15:37;;;;;;;1.43;0.50;;;5.50;29.80;;;;;;5113604;28;20491;-72
2024/03/13 02:18:24;;;;;;;2.27;0.90;;;5.60;29.80;;;;;;5115031;28;20403;-72
2024/03/13 02:20:52;;;;;;;1.77;0.70;;;5.60;29.70;;;;;;5115219;28;20623;-72
2024/03/13 02:23:24;;;;;;;1.57;0.60;;;5.60;30.70;;;;;;5113619;28;20806;-72
2024/03/13 02:25:53;;;;;;;1.87;0.67;;;5.60;31.30;;;;;;5114712;28;20434;-72
2024/03/13 02:28:36;;;;;;;1.50;0.70;;;5.60;28.70;;;;;;5114947;28;20804;-73
2024/03/13 02:31:02;;;;;;;1.90;0.60;;;5.60;27.40;;;;;;5115106;28;20418;-73
2024/03/13 02:33:28;;;;;;;1.43;0.57;;;5.50;27.50;;;;;;5115113;28;20506;-72
2024/03/13 02:35:54;;;;;;;1.37;0.53;;;5.50;28.60;;;;;;5114730;28;20419;-73
2024/03/13 02:38:20;;;;;;;1.60;0.70;;;5.50;28.90;;;;;;5114829;28;20421;-72
2024/03/13 02:40:46;;;;;;;1.87;0.73;;;5.50;28.70;;;;;;5114574;28;20422;-72
2024/03/13 02:43:12;;;;;;;2.47;0.73;;;5.50;29.70;;;;;;5114551;28;20199;-72
2024/03/13 02:45:40;;;;;;;3.90;1.30;;;5.50;28.70;;;;;;5114679;28;20961;-73
2024/03/13 02:48:06;;;;;;;1.50;0.50;;;5.40;30.00;;;;;;5114990;28;20180;-72
2024/03/13 02:50:32;;;;;;;1.50;0.60;;;5.50;31.00;;;;;;5116527;28;20407;-74
2024/03/13 02:52:58;;;;;;;1.70;0.70;;;5.50;31.90;;;;;;5117921;28;20491;-72
2024/03/13 02:55:23;;;;;;;1.50;0.60;;;5.50;31.20;;;;;;5119085;28;20205;-73
2024/03/13 02:57:49;;;;;;;1.53;0.53;;;5.40;30.90;;;;;;5121326;28;20185;-73
2024/03/13 03:00:15;;;;;;;1.43;0.60;;;5.50;32.70;;;;;;5117513;28;20538;-73
2024/03/13 03:02:41;;;;;;;1.73;0.70;;;5.50;32.60;;;;;;5114938;28;20466;-73
2024/03/13 03:05:07;;;;;;;1.80;0.70;;;5.50;34.00;;;;;;5114314;28;20179;-71
2024/03/13 03:07:33;;;;;;;1.50;0.53;;;5.60;33.10;;;;;;5114307;28;20198;-72
2024/03/13 03:09:59;;;;;;;1.40;0.50;;;5.50;33.10;;;;;;5114039;28;20409;-73
2024/03/13 03:12:29;;;;;;;2.27;0.60;;;5.60;34.20;;;;;;5113925;28;20477;-72
2024/03/13 03:14:55;;;;;;;1.80;0.80;;;5.60;34.50;;;;;;5113849;28;20422;-71
2024/03/13 03:17:21;;;;;;;1.87;0.73;;;5.60;34.20;;;;;;5114019;28;20773;-72
2024/03/13 03:19:49;;;;;;;2.00;0.70;;;5.60;33.50;;;;;;5114160;28;20208;-71
2024/03/13 03:22:15;;;;;;;1.40;0.50;;;5.60;34.40;;;;;;5112575;28;20518;-72
2024/03/13 03:24:41;;;;;;;1.43;0.60;;;5.60;33.50;;;;;;5113776;28;20510;-72
2024/03/13 03:27:06;;;;;;;1.40;0.60;;;5.60;33.50;;;;;;5113433;28;20658;-72
2024/03/13 03:29:32;;;;;;;1.90;0.67;;;5.70;35.20;;;;;;5113657;28;20203;-70
2024/03/13 03:31:58;;;;;;;1.40;0.60;;;5.70;35.20;;;;;;5113466;28;20224;-72
2024/03/13 03:34:24;;;;;;;1.40;0.50;;;5.70;34.20;;;;;;5113364;28;20183;-71
2024/03/13 03:36:49;;;;;;;1.73;0.70;;;5.80;34.70;;;;;;5113429;28;20418;-72
2024/03/13 03:39:15;;;;;;;1.50;0.70;;;5.80;33.60;;;;;;5113378;28;20812;-72
2024/03/13 03:41:46;;;;;;;2.00;0.80;;;5.90;35.60;;;;;;5113210;28;20545;-73
2024/03/13 03:44:12;;;;;;;1.60;0.70;;;5.90;34.40;;;;;;5113493;28;20186;-71
2024/03/13 03:46:39;;;;;;;1.60;0.60;;;5.90;33.70;;;;;;5113393;28;20406;-71
2024/03/13 03:49:06;;;;;;;1.60;0.80;;;5.90;35.30;;;;;;5113255;28;20169;-71
2024/03/13 03:51:32;;;;;;;1.50;0.63;;;5.90;35.40;;;;;;5113095;28;20475;-72
2024/03/13 03:54:01;;;;;;;1.60;0.63;;;6.00;36.30;;;;;;5112981;28;20981;-72
2024/03/13 03:56:27;;;;;;;1.40;0.50;;;6.00;33.80;;;;;;5112904;28;20438;-72
2024/03/13 03:58:54;;;;;;;1.70;0.70;;;6.00;34.90;;;;;;5111890;28;20498;-70
2024/03/13 04:01:24;;;;;;;1.40;0.50;;;5.90;34.50;;;;;;5112940;28;20831;-72
2024/03/13 04:03:50;;;;;;;1.80;0.80;;;6.00;37.90;;;;;;5112912;28;20503;-73
2024/03/13 04:06:17;;;;;;;1.90;0.90;;;6.00;37.20;;;;;;5112835;28;20407;-72
2024/03/13 04:08:44;;;;;;;1.80;1.00;;;6.00;38.10;;;;;;5113039;28;20415;-71
2024/03/13 04:11:11;;;;;;;1.53;0.70;;;6.00;39.00;;;;;;5112794;28;20410;-71
2024/03/13 04:13:38;;;;;;;1.53;0.60;;;6.00;39.00;;;;;;5112736;28;20410;-71
2024/03/13 04:16:04;;;;;;;1.60;0.60;;;6.00;38.90;;;;;;5112500;28;20417;-72
2024/03/13 04:18:34;;;;;;;1.93;0.83;;;6.00;39.00;;;;;;5112583;28;20415;-72
2024/03/13 04:21:00;;;;;;;1.50;0.73;;;6.00;38.90;;;;;;5112521;28;20803;-72
2024/03/13 04:23:26;;;;;;;1.70;0.90;;;6.00;39.00;;;;;;5111251;28;20430;-72
2024/03/13 04:25:52;;;;;;;2.00;1.13;;;6.00;38.90;;;;;;5112285;28;20410;-71
2024/03/13 04:28:18;;;;;;;2.23;0.90;;;5.90;38.80;;;;;;5112658;28;20778;-71
2024/03/13 04:30:43;;;;;;;2.00;0.83;;;6.00;40.40;;;;;;5112508;28;20422;-72
2024/03/13 04:33:09;;;;;;;1.70;0.80;;;6.00;39.30;;;;;;5112167;28;20469;-71
2024/03/13 04:35:35;;;;;;;1.50;0.70;;;6.00;40.80;;;;;;5110982;28;20237;-72
2024/03/13 04:38:01;;;;;;;2.43;1.00;;;6.00;39.20;;;;;;5112284;28;20410;-71
2024/03/13 04:40:26;;;;;;;1.97;0.87;;;6.00;40.00;;;;;;5114270;28;20574;-72
2024/03/13 04:42:53;;;;;;;1.70;0.80;;;5.90;41.00;;;;;;5115507;28;20208;-72
2024/03/13 04:45:18;;;;;;;2.83;1.00;;;5.90;41.50;;;;;;5111931;28;20177;-72
2024/03/13 04:47:44;;;;;;;1.67;1.07;;;;;;;;;;5111868;28;20419;-71
2024/03/13 04:50:11;;;;;;;2.93;0.90;;;6.00;41.10;;;;;;5112478;28;20550;-71
2024/03/13 04:52:37;;;;;;;1.60;0.80;;;6.00;42.80;;;;;;5112202;28;20491;-71
2024/03/13 04:55:03;;;;;;;2.80;1.37;;;6.10;43.10;;;;;;5112160;28;20414;-72
2024/03/13 04:57:32;;;;;;;2.23;1.17;;;6.00;42.70;;;;;;5112237;28;20455;-70
2024/03/13 04:59:58;;;;;;;2.00;1.00;;;6.10;43.00;;;;;;5112141;28;20418;-71
2024/03/13 05:02:25;;;;;;;1.90;1.30;;;6.10;43.30;;;;;;5111718;28;20466;-72
2024/03/13 05:04:51;;;;;;;2.83;1.47;;;6.10;42.30;;;;;;5112635;28;20173;-72
2024/03/13 05:07:18;;;;;;;2.30;0.93;;;;;;;;;;5111929;28;20426;-71
2024/03/13 05:09:47;;;;;;;2.03;1.10;;;;;;;;;;5112188;28;20655;-71
2024/03/13 05:12:13;;;;;;;2.50;1.47;;;6.20;42.30;;;;;;5112106;28;20479;-71
2024/03/13 05:14:39;;;;;;;1.67;0.93;;;;;;;;;;5111981;28;20857;-71
2024/03/13 05:17:06;;;;;;;1.90;1.00;;;;;;;;;;5111756;28;20797;-72
2024/03/13 05:19:32;;;;;;;1.67;0.87;;;;;;;;;;5110767;28;20502;-71
2024/03/13 05:21:58;;;;;;;2.20;1.40;;;6.50;66.70;;;;;;5111764;28;20899;-72
2024/03/13 05:24:24;;;;;;;2.10;1.00;;;;;;;;;;5111885;28;20419;-71
2024/03/13 05:26:51;;;;;;;2.73;1.40;;;;;;;;;;5111873;28;20208;-72
2024/03/13 05:29:17;;;;;;;4.37;2.37;;;;;;;;;;5111885;28;20398;-72
2024/03/13 05:31:44;;;;;;;5.27;3.40;;;;;;;;;;5110376;28;20437;-72
2024/03/13 05:34:10;;;;;;;5.43;2.83;;;;;;;;;;5112284;28;20419;-71
2024/03/13 05:36:39;;;;;;;5.97;2.80;;;;;;;;;;5111848;28;20411;-72
2024/03/13 05:39:05;;;;;;;3.37;2.20;;;;;;;;;;5111869;28;20986;-72
2024/03/13 05:41:34;;;;;;;3.07;1.80;;;;;;;;;;5111598;28;20465;-72
2024/03/13 05:44:01;;;;;;;3.43;1.90;;;;;;;;;;5111683;28;20423;-71
2024/03/13 05:46:27;;;;;;;2.90;1.43;;;;;;;;;;5111557;28;20403;-71
2024/03/13 05:48:53;;;;;;;3.07;2.07;;;;;;;;;;5111700;28;20408;-72
2024/03/13 05:51:22;;;;;;;3.40;1.90;;;;;;;;;;5111561;28;20526;-71
2024/03/13 05:53:49;;;;;;;2.80;1.87;;;;;;;;;;5111644;28;20402;-72
2024/03/13 05:56:15;;;;;;;3.00;2.00;;;;;;;;;;5111696;28;20403;-71
2024/03/13 05:58:44;;;;;;;4.10;2.70;;;;;;;;;;5113813;28;20442;-71
2024/03/13 06:01:14;;;;;;;4.27;2.40;;;;;;;;;;5115247;28;20542;-71
2024/03/13 06:03:40;;;;;;;4.13;2.57;;;;;;;;;;5115321;28;20469;-71
2024/03/13 06:06:06;;;;;;;2.83;1.70;;;;;;;;;;5115072;28;20764;-71
2024/03/13 06:08:33;;;;;;;3.97;1.97;;;;;;;;;;5115115;28;20458;-72
2024/03/13 06:10:59;;;;;;;5.43;2.30;;;;;;;;;;5115024;28;20427;-71
2024/03/13 06:13:25;;;;;;;3.57;2.20;;;;;;;;;;5115098;28;20407;-71
2024/03/13 06:15:50;;;;;;;2.77;1.90;;;7.00;37.50;;;;;;5114804;28;20411;-71
2024/03/13 06:18:18;;;;;;;3.33;1.90;;;6.90;37.20;;;;;;5114942;28;20510;-71
2024/03/13 06:20:44;;;;;;;3.00;1.80;;;6.90;37.50;;;;;;5114844;28;20265;-71
2024/03/13 06:23:15;;;;;;;3.00;1.80;;;6.90;37.30;;;;;;5114859;28;20432;-72
2024/03/13 06:25:41;;;;;;;2.83;1.10;;;6.90;39.50;;;;;;5114676;28;20921;-71
2024/03/13 06:30:51;;;;;;;2.20;1.60;;;6.90;39.70;;;;;;5114919;28;20464;-70
2024/03/13 06:33:17;;;;;;;2.97;1.80;;;7.00;39.80;;;;;;5114583;28;20491;-71
2024/03/13 06:35:43;;;;;;;2.00;1.30;;;7.00;37.20;;;;;;5114743;28;20419;-71
2024/03/13 06:38:08;;;;;;;4.87;2.27;;;7.00;39.30;;;;;;5114725;28;20551;-71
2024/03/13 06:40:34;;;;;;;5.97;2.17;;;7.00;38.70;;;;;;5114695;28;20176;-72
2024/03/13 06:42:59;;;;;;;4.60;1.90;;;7.00;38.20;;;;;;5113427;28;20311;-71
2024/03/13 06:45:25;;;;;;;3.07;2.20;;;7.10;38.30;;;;;;5115030;28;20183;-71
2024/03/13 06:47:51;;;;;;;4.80;2.00;;;7.20;37.20;;;;;;5118312;28;20177;-71
2024/03/13 06:50:17;;;;;;;2.63;1.43;;;7.30;37.50;;;;;;5130339;28;20214;-72
2024/03/13 06:52:43;;;;;;;3.43;2.20;;;7.30;36.70;;;;;;5126655;28;20438;-72
2024/03/13 06:55:09;;;;;;;2.50;1.70;;;7.40;36.40;;;;;;5120965;28;20424;-71
2024/03/13 06:57:34;;;;;;;2.63;2.13;;;7.40;35.60;;;;;;5116423;28;20417;-72
2024/03/13 07:00:00;;;;;;;2.30;1.90;;;7.50;34.00;;;;;;5114979;28;20228;-72
2024/03/13 07:02:28;;;;;;;2.40;1.73;;;7.40;35.00;;;;;;5115539;28;20219;-72
2024/03/13 07:04:54;;;;;;;2.60;1.70;;;7.40;35.00;;;;;;5117585;28;20427;-71
2024/03/13 07:07:19;;;;;;;2.93;2.30;;;7.50;36.40;;;;;;5113294;28;20416;-71
2024/03/13 07:09:45;;;;;;;2.10;1.43;;;7.60;35.20;;;;;;5113788;28;20181;-71
2024/03/13 07:12:13;;;;;;;3.53;1.90;;;7.70;34.30;;;;;;5114241;28;20244;-70
2024/03/13 07:14:39;;;;;;;3.33;2.67;;;7.70;33.00;;;;;;5114649;28;20411;-72
2024/03/13 07:17:04;;;;;;;2.77;2.03;;;7.80;34.20;;;;;;5114798;28;20429;-70
2024/03/13 07:19:31;;;;;;;3.80;2.40;;;;;;;;;;5114174;28;20182;-72
2024/03/13 07:21:57;;;;;;;3.77;2.37;;;;;;;;;;5113599;28;20627;-70
2024/03/13 07:24:23;;;;;;;3.00;1.77;;;;;;;;;;5113662;28;20414;-71
2024/03/13 07:26:49;;;;;;;3.63;2.27;;;;;;;;;;5112448;28;20453;-71
2024/03/13 07:29:15;;;;;;;3.00;2.03;;;;;;;;;;5113749;28;20426;-71
2024/03/13 07:31:41;;;;;;;4.53;1.53;;;;;;;;;;5113249;28;20440;-72
2024/03/13 07:34:09;;;;;;;4.20;1.90;;;;;;;;;;5113469;28;20928;-72
2024/03/13 07:36:37;;;;;;;2.70;2.13;;;;;;;;;;5115688;28;20414;-72
2024/03/13 07:39:03;;;;;;;3.73;2.30;;;;;;;;;;5114726;28;20445;-72
2024/03/13 07:41:31;;;;;;;4.50;2.00;;;;;;;;;;5113066;27;20514;-72
2024/03/13 07:43:57;;;;;;;2.80;2.00;;;;;;;;;;5113190;28;20424;-72
2024/03/13 07:46:23;;;;;;;3.20;2.50;;;;;;;;;;5113053;28;20421;-72
2024/03/13 07:48:49;;;;;;;2.63;1.70;;;;;;;;;;5113089;28;20407;-72
2024/03/13 07:51:15;;;;;;;3.67;2.60;;;;;;;;;;5113510;28;20781;-72
2024/03/13 07:53:41;;;;;;;2.87;2.20;;;;;;;;;;5113074;28;20436;-72
2024/03/13 07:56:08;;;;;;;8.20;2.37;;;;;;;;;;5112669;27;20410;-73
2024/03/13 07:58:34;;;;;;;2.80;2.40;;;;;;;;;;5112905;28;20771;-72
2024/03/13 08:01:01;;;;;;;3.07;1.90;;;;;;;;;;5112653;28;20456;-71
2024/03/13 08:03:27;;;;;;;2.53;1.83;;;;;;;;;;5111305;28;20418;-72
2024/03/13 08:05:55;;;;;;;3.50;2.20;;;;;;;;;;5112559;28;20434;-73
2024/03/13 08:08:21;;;;;;;3.90;1.93;;;;;;;;;;5112784;28;20420;-72
2024/03/13 08:10:47;;;;;;;2.57;2.20;;;;;;;;;;5111506;28;20467;-72
2024/03/13 08:13:13;;;;;;;3.90;2.23;;;;;;;;;;5111377;28;20437;-70
2024/03/13 08:15:39;;;;;;;2.10;1.43;;;;;;;;;;5112223;28;20413;-71
2024/03/13 08:18:09;;;;;;;2.60;2.10;;;;;;;;;;5110969;28;20419;-71
2024/03/13 08:20:35;;;;;;;2.43;1.43;;;;;;;;;;5112249;28;20424;-73
2024/03/13 08:23:03;;;;;;;2.10;1.27;;;;;;;;;;5111785;28;20987;-71
2024/03/13 08:25:29;;;;;;;2.77;1.70;;;;;;;;;;5111022;28;20426;-72
2024/03/13 08:27:56;;;;;;;2.83;1.60;;;;;;;;;;5112755;28;20428;-72
2024/03/13 08:30:23;;;;;;;2.63;2.17;;;;;;;;;;5112760;28;20462;-72
2024/03/13 08:32:51;;;;;;;4.57;2.63;;;;;;;;;;5098688;22;20488;-70
2024/03/13 08:35:18;;;;;;;2.47;1.67;;;;;;;;;;5050719;28;20420;-68
2024/03/13 08:37:44;;;;;;;2.90;2.20;;;;;;;;;;5050692;28;20401;-68
2024/03/13 08:40:11;;;;;;;3.80;2.57;;;;;;;;;;5050662;28;20965;-68
2024/03/13 08:42:41;;;;;;;2.87;1.50;;;;;;;;;;5050575;28;20476;-68
2024/03/13 08:45:13;;;;;;;2.77;1.80;;;;;;;;;;5050657;28;20909;-69
2024/03/13 08:47:39;;;;;;;2.93;1.83;;;9.60;27.00;;;;;;5051040;28;20397;-68
2024/03/13 08:50:05;;;;;;;2.17;1.30;;;9.60;27.40;;;;;;5050906;28;20413;-68
2024/03/13 08:52:31;;;;;;;2.23;1.30;;;9.70;28.10;;;;;;5051261;28;20328;-69
2024/03/13 08:54:57;;;;;;;4.10;2.10;;;9.80;27.40;;;;;;5050743;28;20540;-69
2024/03/13 08:57:24;;;;;;;9.87;2.00;;;9.80;27.60;;;;;;5050663;28;20641;-69
2024/03/13 08:59:50;;;;;;;3.27;1.57;;;9.90;27.40;;;;;;5050947;28;20413;-68
2024/03/13 09:02:16;;;;;;;2.40;1.70;;;10.00;25.90;;;;;;5051023;28;20460;-69
2024/03/13 09:04:42;;;;;;;2.40;1.60;;;10.20;27.50;;;;;;5049267;28;20193;-69
2024/03/13 09:07:10;;;;;;;4.40;2.27;;;10.10;26.20;;;;;;5050597;28;20409;-69
2024/03/13 09:09:36;;;;;;;3.50;1.70;;;10.20;27.90;;;;;;5050755;28;20170;-69
2024/03/13 09:12:03;;;;;;;2.10;0.90;;;10.40;27.10;;;;;;5051036;28;20445;-68
2024/03/13 09:14:28;;;;;;;2.80;1.40;;;10.20;25.90;;;;;;5053051;28;20851;-68
2024/03/13 09:16:54;;;;;;;2.07;1.23;;;10.20;27.70;;;;;;5052601;28;20416;-69
2024/03/13 09:19:19;;;;;;;2.20;1.40;;;10.40;27.90;;;;;;5052789;28;20538;-69
2024/03/13 09:21:48;;;;;;;2.03;1.00;;;10.50;26.10;;;;;;5051677;28;20206;-68
2024/03/13 09:24:15;;;;;;;2.03;0.83;;;10.40;26.20;;;;;;5052512;28;20174;-68
2024/03/13 09:26:40;;;;;;;2.63;0.70;;;10.30;27.70;;;;;;5051220;28;20416;-68
2024/03/13 09:29:06;;;;;;;1.60;0.70;;;10.30;28.40;;;;;;5050770;28;20860;-68
2024/03/13 09:31:33;;;;;;;2.40;0.57;;;10.40;26.20;;;;;;5050563;28;20247;-68
2024/03/13 09:33:58;;;;;;;1.47;0.50;;;10.50;27.10;;;;;;5052102;28;20279;-68
2024/03/13 09:36:24;;;;;;;1.50;0.60;;;10.80;26.00;;;;;;5052867;28;20471;-69
2024/03/13 09:38:50;;;;;;;1.93;0.80;;;11.10;25.40;;;;;;5054174;28;20874;-69
2024/03/13 09:41:16;;;;;;;2.10;0.60;;;11.20;22.50;;;;;;5052748;28;20203;-70
2024/03/13 09:43:43;;;;;;;1.60;0.70;;;11.20;21.40;;;;;;5053025;28;20467;-69
2024/03/13 09:46:09;;;;;;;1.67;0.67;;;11.20;21.10;;;;;;5053799;28;20172;-69
2024/03/13 09:48:39;;;;;;;1.70;0.80;;;11.20;22.00;;;;;;5053949;28;20489;-69
2024/03/13 09:51:05;;;;;;;1.70;0.50;;;11.40;21.30;;;;;;5053948;28;20440;-68
2024/03/13 09:53:32;;;;;;;2.20;0.70;;;11.40;19.40;;;;;;5053632;28;20437;-68
2024/03/13 09:55:58;;;;;;;1.80;0.60;;;11.40;18.60;;;;;;5053283;28;20458;-68
2024/03/13 09:58:23;;;;;;;3.83;0.80;;;11.60;19.40;;;;;;5052685;28;20444;-67
2024/03/13 10:00:53;;;;;;;1.50;0.50;;;11.70;16.90;;;;;;5053737;28;20179;-68
2024/03/13 10:03:22;;;;;;;1.90;0.70;;;11.70;15.80;;;;;;5053591;28;20438;-67
2024/03/13 10:05:52;;;;;;;2.00;0.70;;;11.60;15.90;;;;;;5051776;28;20947;-68
2024/03/13 10:08:19;;;;;;;1.90;0.90;;;11.60;17.40;;;;;;5052253;28;20779;-68
2024/03/13 10:10:48;;;;;;;1.80;1.00;;;11.70;17.30;;;;;;5053474;28;20442;-69
2024/03/13 10:13:16;;;;;;;2.33;0.90;;;11.90;15.40;;;;;;5053378;28;20819;-69
2024/03/13 10:15:43;;;;;;;2.10;0.90;;;12.00;16.60;;;;;;5053475;28;20958;-69
2024/03/13 10:18:18;;;;;;;1.70;0.80;;;11.90;17.50;;;;;;5053716;28;20442;-68
2024/03/13 10:21:02;;;;;;;2.67;1.10;;;11.90;18.80;;;;;;5053726;28;20404;-68
2024/03/13 10:23:31;;;;;;;2.90;2.10;;;12.10;19.00;;;;;;5053584;28;20818;-69
2024/03/13 10:25:59;;;;;;;2.43;1.17;;;12.20;19.00;;;;;;5052944;28;20432;-68
2024/03/13 10:28:26;;;;;;;1.80;0.80;;;12.50;17.50;;;;;;5052109;28;20501;-69
2024/03/13 10:30:53;;;;;;;2.00;0.80;;;12.50;22.50;;;;;;5052097;28;20426;-68
2024/03/13 10:33:19;;;;;;;2.20;0.80;;;12.40;24.10;;;;;;5053737;28;20465;-69
2024/03/13 10:35:45;;;;;;;2.47;1.10;;;12.30;22.40;;;;;;5054158;28;20456;-69
2024/03/13 10:38:14;;;;;;;2.63;1.50;;;12.50;23.10;;;;;;5054934;28;20543;-68
2024/03/13 10:40:41;;;;;;;2.10;1.10;;;12.60;23.10;;;;;;5056087;28;20911;-69
2024/03/13 10:43:09;;;;;;;2.87;0.90;;;12.50;23.10;;;;;;5056206;28;20864;-69
2024/03/13 10:45:42;;;;;;;2.50;1.50;;;12.40;24.20;;;;;;5054257;28;20412;-68
2024/03/13 10:48:11;;;;;;;1.80;0.90;;;12.40;24.20;;;;;;5054722;28;20848;-68
2024/03/13 10:50:37;;;;;;;3.37;1.53;;;12.60;24.40;;;;;;5055373;28;20416;-68
2024/03/13 10:53:05;;;;;;;2.47;1.27;;;12.80;24.50;;;;;;5054656;28;20432;-68
2024/03/13 10:55:31;;;;;;;2.10;0.97;;;13.20;21.80;;;;;;5054298;28;20478;-67
2024/03/13 10:57:57;;;;;;;2.77;1.10;;;13.30;20.70;;;;;;5055226;28;20448;-68
2024/03/13 11:00:23;;;;;;;2.27;1.00;;;13.50;19.00;;;;;;5054542;28;20864;-68
2024/03/13 11:02:51;;;;;;;2.17;0.93;;;13.30;19.60;;;;;;5054650;28;20551;-68
2024/03/13 11:05:17;;;;;;;1.80;0.90;;;13.40;19.90;;;;;;5055202;28;20175;-69
2024/03/13 11:07:44;;;;;;;2.80;0.97;;;13.20;19.70;;;;;;5055111;28;20504;-69
2024/03/13 11:10:24;;;;;;;2.77;0.87;;;13.50;20.00;;;;;;5054702;28;20481;-68
2024/03/13 11:12:51;;;;;;;2.93;1.73;;;13.50;17.70;;;;;;5054683;28;20429;-69
2024/03/13 11:15:29;;;;;;;1.97;0.90;;;13.70;18.50;;;;;;5052402;28;20504;-68
2024/03/13 11:18:05;;;;;;;2.67;0.93;;;13.90;17.50;;;;;;5054520;28;20416;-69
2024/03/13 11:20:58;;;;;;;2.53;0.90;;;14.10;20.30;;;;;;5052994;28;20467;-70
2024/03/13 11:23:39;;;;;;;2.20;1.53;;;14.00;20.40;;;;;;5053390;28;20472;-67
2024/03/13 11:26:09;;;;;;;2.10;1.30;;;13.90;19.90;;;;;;5053745;28;20405;-68
2024/03/13 11:28:37;;;;;;;2.47;1.00;;;13.70;21.20;;;;;;5055114;28;20413;-69
2024/03/13 11:31:05;;;;;;;2.13;1.00;;;13.60;20.70;;;;;;5054069;28;20503;-68
2024/03/13 11:33:31;;;;;;;1.70;0.70;;;13.50;21.60;;;;;;5053333;28;20840;-68
2024/03/13 11:36:01;;;;;;;1.80;0.80;;;13.60;22.40;;;;;;5052652;28;20412;-68
2024/03/13 11:38:27;;;;;;;1.83;0.70;;;13.60;21.80;;;;;;5052887;28;20417;-68
2024/03/13 11:40:54;;;;;;;1.97;0.80;;;13.40;22.00;;;;;;5052490;28;20463;-70
2024/03/13 11:43:25;;;;;;;1.80;0.87;;;13.50;22.70;;;;;;5052488;28;20429;-70
2024/03/13 11:45:52;;;;;;;2.47;1.40;;;13.50;23.10;;;;;;5051934;28;20803;-68
2024/03/13 11:48:19;;;;;;;2.57;1.20;;;13.30;20.70;;;;;;5051985;28;20413;-69
2024/03/13 11:51:00;;;;;;;2.83;1.03;;;13.10;21.80;;;;;;5052032;28;20745;-69
2024/03/13 11:53:32;;;;;;;1.70;0.80;;;13.30;20.40;;;;;;5052637;28;20957;-69
2024/03/13 11:56:01;;;;;;;1.90;0.80;;;13.10;21.60;;;;;;5051833;28;20424;-69
2024/03/13 11:58:33;;;;;;;2.77;0.87;;;12.90;22.00;;;;;;5052242;28;20428;-69
2024/03/13 12:01:01;;;;;;;2.30;1.00;;;13.00;23.40;;;;;;5052315;28;20409;-69
2024/03/13 12:03:33;;;;;;;2.27;1.60;;;13.10;23.80;;;;;;5051872;28;20432;-68
2024/03/13 12:06:00;;;;;;;1.77;0.70;;;13.00;23.20;;;;;;5051782;28;20420;-68
2024/03/13 12:08:27;;;;;;;1.50;0.70;;;13.20;24.30;;;;;;5051825;28;20480;-69
2024/03/13 12:10:54;;;;;;;3.13;0.93;;;13.30;23.20;;;;;;5051496;28;20584;-69
2024/03/13 12:13:19;;;;;;;1.60;0.83;;;13.70;21.40;;;;;;5051572;28;20489;-68
2024/03/13 12:15:46;;;;;;;2.23;0.70;;;14.00;25.30;;;;;;5051137;28;20405;-67
2024/03/13 12:18:12;;;;;;;2.17;0.87;;;13.90;25.00;;;;;;5050444;28;20215;-68
2024/03/13 12:20:42;;;;;;;1.90;0.63;;;14.10;27.10;;;;;;5051428;28;20903;-68
2024/03/13 12:23:07;;;;;;;1.70;0.90;;;13.90;25.60;;;;;;5051219;28;20460;-68
2024/03/13 12:25:36;;;;;;;4.53;1.30;;;13.70;26.90;;;;;;5051331;28;20418;-69
2024/03/13 12:28:11;;;;;;;2.10;1.00;;;13.70;28.30;;;;;;5050928;28;20659;-69
2024/03/13 12:30:37;;;;;;;2.43;0.80;;;13.70;28.10;;;;;;5049727;28;20586;-69
2024/03/13 12:33:05;;;;;;;1.87;0.70;;;13.60;29.20;;;;;;5051532;28;20703;-68
2024/03/13 12:35:34;;;;;;;2.10;1.00;;;13.70;28.30;;;;;;5050813;28;20931;-70
2024/03/13 12:37:59;;;;;;;4.00;1.63;;;13.90;29.10;;;;;;5051266;28;20443;-68
2024/03/13 12:40:25;;;;;;;1.90;0.97;;;14.30;28.10;;;;;;5052784;28;20421;-68
2024/03/13 12:42:51;;;;;;;2.10;0.90;;;14.30;29.90;;;;;;5052421;28;20210;-69
2024/03/13 12:45:17;;;;;;;3.33;2.60;;;14.60;40.60;;;;;;5052688;28;20409;-68
2024/03/13 12:47:44;;;;;;;2.20;1.70;;;14.60;35.60;;;;;;5052224;28;20213;-68
2024/03/13 12:50:17;;;;;;;2.43;1.40;;;;;;;;;;5052207;28;20409;-69
2024/03/13 12:52:44;;;;;;;4.97;2.30;;;;;;;;;;5052364;28;20441;-67
2024/03/13 12:55:12;;;;;;;6.00;2.90;;;15.00;9.70;;;;;;5050637;28;20425;-67
2024/03/13 12:57:38;;;;;;;2.80;1.63;;;14.90;9.80;;;;;;5052354;28;20413;-67
2024/03/13 13:00:18;;;;;;;2.40;1.27;;;;;;;;;;5052614;28;20417;-68
2024/03/13 13:02:47;;;;;;;1.70;0.80;;;;;;;;;;5052569;28;20522;-67
2024/03/13 13:05:14;;;;;;;6.23;1.10;;;15.20;6.70;;;;;;5051868;28;20758;-68
2024/03/13 13:07:59;;;;;;;2.10;1.03;;;15.20;5.70;;;;;;5052642;28;20419;-69
2024/03/13 13:10:27;;;;;;;4.70;0.90;;;15.40;8.20;;;;;;5057013;28;20912;-67
2024/03/13 13:12:54;;;;;;;2.50;0.83;;;15.60;4.50;;;;;;5057650;28;20429;-67
2024/03/13 13:15:21;;;;;;;2.67;1.10;;;16.00;3.40;;;;;;5056731;28;20459;-67
2024/03/13 13:17:47;;;;;;;2.40;0.80;;;15.80;3.40;;;;;;5056607;28;20412;-66
2024/03/13 13:20:13;;;;;;;2.10;0.93;;;15.90;1.70;;;;;;5056078;28;20890;-68
2024/03/13 13:22:44;;;;;;;1.80;0.70;;;16.00;3.50;;;;;;5056412;28;20460;-69
2024/03/13 13:25:10;;;;;;;3.00;0.97;;;16.20;1.90;;;;;;5056285;28;20170;-68
2024/03/13 13:27:38;;;;;;;1.90;0.70;;;16.10;1.00;;;;;;5056989;28;20412;-67
2024/03/13 13:30:04;;;;;;;2.87;1.00;;;15.50;2.00;;;;;;5061913;28;20421;-66
2024/03/13 13:32:30;;;;;;;3.47;1.30;;;15.40;2.10;;;;;;5062552;28;20512;-69
2024/03/13 13:34:55;;;;;;;2.50;1.50;;;15.20;4.30;;;;;;5066997;28;20413;-67
2024/03/13 13:37:21;;;;;;;1.70;0.70;;;15.20;6.60;;;;;;5063633;28;20189;-67